Time;durP1;ratioP1;P1;durP2;ratioP2;P2;SDS_P1;SDS_P2;PMS_P1;PMS_P2;Temp;Humidity;BMP_temperature;BMP_pressure;BME280_temperature;BME280_humidity;BME280_pressure;Samples;Min_cycle;Max_cycle;Signal;HPM_P1;HPM_P2
2021/11/13 00:02:20;;;;;;;2.13;2.03;;;10.20;93.10;;;;;;4974650;28;20247;-82
2021/11/13 00:04:47;;;;;;;2.70;2.50;;;10.20;93.10;;;;;;4971908;28;20247;-82
2021/11/13 00:07:14;;;;;;;2.97;2.67;;;10.20;93.10;;;;;;4978521;28;20221;-83
2021/11/13 00:09:42;;;;;;;2.13;1.83;;;10.20;93.10;;;;;;4972838;28;20221;-82
2021/11/13 00:12:09;;;;;;;2.57;2.40;;;10.10;93.10;;;;;;4987822;28;20235;-83
2021/11/13 00:14:36;;;;;;;1.73;1.70;;;10.20;93.20;;;;;;4987661;28;20742;-82
2021/11/13 00:17:03;;;;;;;3.93;1.90;;;10.20;93.20;;;;;;4986602;28;20226;-82
2021/11/13 00:19:31;;;;;;;3.00;2.43;;;10.20;93.20;;;;;;4987503;28;20236;-82
2021/11/13 00:21:58;;;;;;;4.20;1.23;;;10.10;93.20;;;;;;4993255;28;20238;-83
2021/11/13 00:24:25;;;;;;;12.60;3.67;;;10.20;93.20;;;;;;4992461;28;20213;-82
2021/11/13 00:26:53;;;;;;;2.73;2.37;;;10.20;93.20;;;;;;4990608;28;20231;-82
2021/11/13 00:29:20;;;;;;;2.27;2.17;;;10.10;93.10;;;;;;4993435;28;20216;-82
2021/11/13 00:31:49;;;;;;;3.37;1.47;;;10.10;93.20;;;;;;4995395;28;20248;-82
2021/11/13 00:34:17;;;;;;;4.20;3.30;;;10.00;93.30;;;;;;4979008;28;20212;-82
2021/11/13 00:36:45;;;;;;;1.60;1.50;;;10.00;93.40;;;;;;4990665;28;20224;-83
2021/11/13 00:39:12;;;;;;;7.70;3.60;;;9.90;93.50;;;;;;4991274;28;20240;-83
2021/11/13 00:41:39;;;;;;;6.23;4.27;;;9.90;93.60;;;;;;4990890;28;20212;-83
2021/11/13 00:44:06;;;;;;;1.73;1.63;;;9.80;93.70;;;;;;4988501;28;20252;-83
2021/11/13 00:46:34;;;;;;;4.77;3.87;;;9.80;93.80;;;;;;4990057;28;20213;-82
2021/11/13 00:49:01;;;;;;;3.73;3.40;;;9.80;93.90;;;;;;5000415;28;20243;-82
2021/11/13 00:51:29;;;;;;;2.60;2.40;;;9.90;94.00;;;;;;5002383;28;20545;-82
2021/11/13 00:53:56;;;;;;;7.30;2.87;;;9.90;94.00;;;;;;4990596;28;20212;-82
2021/11/13 00:56:23;;;;;;;1.50;1.40;;;9.90;93.90;;;;;;4994140;28;20662;-82
2021/11/13 00:58:50;;;;;;;1.73;1.63;;;10.00;94.00;;;;;;5014908;28;20228;-82
2021/11/13 01:01:17;;;;;;;4.77;2.37;;;10.00;94.00;;;;;;4999873;28;20637;-82
2021/11/13 01:03:45;;;;;;;2.37;2.27;;;10.00;94.00;;;;;;5013068;28;20211;-83
2021/11/13 01:06:12;;;;;;;2.33;2.10;;;10.10;94.00;;;;;;5004989;28;20220;-82
2021/11/13 01:08:40;;;;;;;1.67;1.57;;;10.10;93.90;;;;;;5011506;28;20215;-82
2021/11/13 01:11:08;;;;;;;4.57;3.47;;;10.10;94.00;;;;;;4995362;28;20220;-83
2021/11/13 01:13:36;;;;;;;3.07;2.67;;;10.10;94.00;;;;;;4983359;28;20213;-83
2021/11/13 01:16:03;;;;;;;2.77;2.60;;;10.10;94.00;;;;;;4991882;28;20219;-83
2021/11/13 01:18:30;;;;;;;2.13;1.93;;;10.10;93.90;;;;;;5007920;28;20258;-82
2021/11/13 01:20:58;;;;;;;3.10;2.80;;;10.10;93.90;;;;;;5004469;28;20690;-83
2021/11/13 01:23:25;;;;;;;1.83;1.77;;;10.10;93.90;;;;;;5009240;28;20223;-83
2021/11/13 01:25:52;;;;;;;1.83;1.73;;;10.20;93.90;;;;;;4994934;28;20617;-81
2021/11/13 01:28:20;;;;;;;6.53;2.30;;;10.20;93.90;;;;;;5009559;28;20227;-83
2021/11/13 01:30:47;;;;;;;0.67;0.67;;;10.20;93.90;;;;;;4997937;28;20259;-83
2021/11/13 01:33:15;;;;;;;2.23;2.13;;;10.20;93.90;;;;;;5000220;28;20224;-83
2021/11/13 01:35:42;;;;;;;2.53;1.50;;;10.20;93.90;;;;;;5018404;28;20230;-82
2021/11/13 01:38:16;;;;;;;2.53;2.33;;;10.10;93.80;;;;;;5004411;28;20217;-83
2021/11/13 01:40:44;;;;;;;3.73;3.43;;;10.10;93.80;;;;;;4998243;28;20295;-82
2021/11/13 01:43:12;;;;;;;3.00;1.47;;;10.10;93.80;;;;;;5002321;28;20208;-83
2021/11/13 01:45:41;;;;;;;3.63;3.33;;;10.20;93.90;;;;;;4998073;28;20274;-83
2021/11/13 01:48:08;;;;;;;1.53;1.53;;;10.10;93.80;;;;;;5000273;28;20213;-83
2021/11/13 01:50:42;;;;;;;2.23;1.63;;;10.10;94.00;;;;;;5015766;28;20299;-82
2021/11/13 01:53:10;;;;;;;5.50;3.30;;;10.10;93.80;;;;;;4991545;28;20220;-82
2021/11/13 01:55:38;;;;;;;2.00;1.87;;;10.20;93.80;;;;;;4990842;28;20222;-82
2021/11/13 01:58:11;;;;;;;3.53;2.57;;;10.20;93.80;;;;;;4996043;28;20220;-83
2021/11/13 02:00:44;;;;;;;2.60;2.20;;;10.20;93.80;;;;;;4992906;28;20295;-82
2021/11/13 02:03:12;;;;;;;2.70;2.50;;;10.20;93.80;;;;;;4991410;28;20215;-82
2021/11/13 02:05:50;;;;;;;1.77;1.67;;;10.20;93.80;;;;;;4983554;28;20239;-82
2021/11/13 02:08:18;;;;;;;2.83;1.30;;;10.20;93.80;;;;;;5001885;28;20227;-82
2021/11/13 02:10:46;;;;;;;1.57;1.47;;;10.20;93.70;;;;;;5008633;28;20220;-82
2021/11/13 02:13:13;;;;;;;4.77;4.10;;;10.20;93.80;;;;;;4994471;28;20689;-83
2021/11/13 02:15:41;;;;;;;2.00;1.90;;;10.20;93.80;;;;;;5007988;28;20212;-82
2021/11/13 02:18:08;;;;;;;2.90;2.70;;;10.30;93.80;;;;;;5003719;28;20229;-82
2021/11/13 02:20:42;;;;;;;2.97;2.77;;;10.30;94.10;;;;;;5008870;28;20254;-82
2021/11/13 02:23:12;;;;;;;3.40;3.10;;;10.30;93.80;;;;;;4997096;28;20624;-82
2021/11/13 02:25:40;;;;;;;1.93;1.83;;;10.30;93.80;;;;;;5013072;28;20209;-82
2021/11/13 02:28:10;;;;;;;2.63;1.97;;;10.30;93.80;;;;;;4997177;28;20303;-83
2021/11/13 02:30:38;;;;;;;2.23;2.13;;;10.30;93.80;;;;;;5012182;28;20227;-83
2021/11/13 02:33:07;;;;;;;1.87;1.77;;;10.40;93.80;;;;;;5017338;28;20230;-82
2021/11/13 02:35:35;;;;;;;4.17;3.83;;;10.40;93.80;;;;;;5002979;28;20300;-83
2021/11/13 02:38:19;;;;;;;3.60;3.37;;;10.40;93.80;;;;;;4999571;28;20223;-82
2021/11/13 02:40:51;;;;;;;4.00;3.70;;;10.40;93.80;;;;;;5011020;28;20682;-83
2021/11/13 02:43:19;;;;;;;3.70;1.77;;;10.50;93.80;;;;;;4989281;28;20223;-83
2021/11/13 02:45:46;;;;;;;1.07;0.97;;;10.50;93.80;;;;;;5009750;28;20216;-83
2021/11/13 02:48:14;;;;;;;4.77;2.87;;;10.50;93.80;;;;;;5003056;28;20250;-83
2021/11/13 02:50:45;;;;;;;3.90;2.83;;;10.50;93.80;;;;;;4984489;28;20216;-82
2021/11/13 02:53:17;;;;;;;10.37;3.50;;;10.50;93.80;;;;;;4992902;28;20602;-83
2021/11/13 02:55:45;;;;;;;2.83;2.67;;;10.50;93.80;;;;;;4988993;28;20254;-82
2021/11/13 02:58:14;;;;;;;22.23;3.50;;;10.50;93.80;;;;;;4974060;28;20217;-83
2021/11/13 03:00:43;;;;;;;1.47;1.37;;;10.50;93.80;;;;;;5017178;28;20326;-83
2021/11/13 03:03:16;;;;;;;5.73;3.40;;;10.60;93.80;;;;;;4999065;28;20235;-83
2021/11/13 03:05:53;;;;;;;11.00;3.90;;;10.60;93.80;;;;;;5008895;28;20307;-82
2021/11/13 03:08:22;;;;;;;3.33;3.03;;;10.60;93.90;;;;;;4988926;28;20235;-82
2021/11/13 03:10:50;;;;;;;3.37;3.17;;;10.60;93.80;;;;;;4995077;28;20223;-83
2021/11/13 03:13:17;;;;;;;2.67;2.07;;;10.60;93.80;;;;;;4987696;28;20546;-83
2021/11/13 03:15:45;;;;;;;3.63;1.50;;;10.60;93.80;;;;;;4990782;28;20213;-82
2021/11/13 03:18:12;;;;;;;3.10;2.00;;;10.60;93.80;;;;;;5012177;28;20235;-83
2021/11/13 03:20:39;;;;;;;1.77;1.67;;;10.60;93.80;;;;;;4991348;28;20244;-83
2021/11/13 03:23:08;;;;;;;1.33;1.27;;;10.60;93.80;;;;;;4992242;28;20219;-82
2021/11/13 03:25:39;;;;;;;2.67;2.10;;;10.60;93.80;;;;;;5011569;28;20213;-83
2021/11/13 03:28:12;;;;;;;4.30;3.67;;;10.60;93.80;;;;;;4990190;28;20212;-83
2021/11/13 03:30:40;;;;;;;2.97;1.73;;;10.60;93.90;;;;;;4987505;28;20216;-83
2021/11/13 03:33:07;;;;;;;1.83;1.73;;;10.60;93.80;;;;;;5011358;28;20208;-83
2021/11/13 03:35:35;;;;;;;5.27;3.23;;;10.60;93.80;;;;;;5006763;28;20219;-83
2021/11/13 03:38:06;;;;;;;1.33;1.33;;;10.60;93.80;;;;;;4973011;28;20208;-83
2021/11/13 03:40:35;;;;;;;1.73;1.63;;;10.60;93.80;;;;;;4991946;28;20251;-82
2021/11/13 03:43:04;;;;;;;1.47;1.40;;;10.50;93.80;;;;;;5007563;28;20220;-83
2021/11/13 03:45:32;;;;;;;0.87;0.87;;;10.50;93.90;;;;;;4993153;28;20229;-83
2021/11/13 03:47:59;;;;;;;9.23;4.70;;;10.50;94.00;;;;;;4997772;28;20635;-82
2021/11/13 03:50:27;;;;;;;1.17;1.17;;;10.50;94.00;;;;;;5011619;28;20216;-82
2021/11/13 03:52:54;;;;;;;2.77;2.57;;;10.50;94.10;;;;;;4987529;28;20552;-82
2021/11/13 03:55:23;;;;;;;2.20;2.00;;;10.50;94.10;;;;;;5010351;28;20219;-83
2021/11/13 03:57:51;;;;;;;7.57;3.50;;;10.60;94.10;;;;;;4991328;28;20251;-82
2021/11/13 04:00:20;;;;;;;4.47;2.70;;;10.60;94.10;;;;;;4994792;28;20692;-83
2021/11/13 04:02:49;;;;;;;1.33;1.30;;;10.60;94.10;;;;;;4991683;28;20212;-82
2021/11/13 04:05:17;;;;;;;3.30;2.60;;;10.60;94.00;;;;;;5012402;28;20583;-82
2021/11/13 04:07:44;;;;;;;1.93;1.83;;;10.60;94.10;;;;;;5006737;28;20712;-82
2021/11/13 04:10:13;;;;;;;1.50;1.50;;;10.70;94.10;;;;;;5015698;28;20219;-82
2021/11/13 04:12:41;;;;;;;4.10;2.00;;;10.70;94.10;;;;;;5005625;28;20296;-83
2021/11/13 04:15:10;;;;;;;2.27;1.63;;;10.70;94.10;;;;;;5000404;28;20223;-82
2021/11/13 04:17:38;;;;;;;0.90;0.77;;;10.70;94.00;;;;;;4979141;28;20217;-82
2021/11/13 04:20:07;;;;;;;12.50;4.23;;;10.80;94.00;;;;;;5009467;28;20566;-82
2021/11/13 04:22:36;;;;;;;10.27;1.87;;;10.80;94.10;;;;;;4986159;28;20231;-82
2021/11/13 04:25:03;;;;;;;2.03;1.30;;;10.80;94.10;;;;;;5017500;28;20641;-82
2021/11/13 04:27:31;;;;;;;1.93;1.83;;;10.80;94.10;;;;;;4994243;28;20227;-82
2021/11/13 04:29:58;;;;;;;4.97;4.43;;;10.80;94.00;;;;;;4989006;28;20216;-82
2021/11/13 04:32:29;;;;;;;4.80;3.23;;;10.90;94.10;;;;;;5003432;28;20213;-82
2021/11/13 04:37:26;;;;;;;1.57;1.50;;;10.90;94.00;;;;;;5003855;28;20224;-82
2021/11/13 04:39:54;;;;;;;3.27;2.97;;;10.90;94.00;;;;;;5009338;28;20236;-82
2021/11/13 04:42:21;;;;;;;1.60;1.60;;;10.90;94.00;;;;;;4991166;28;20571;-83
2021/11/13 04:44:50;;;;;;;5.40;3.10;;;11.00;94.00;;;;;;4992146;28;20226;-82
2021/11/13 04:47:17;;;;;;;5.57;3.43;;;11.00;94.00;;;;;;5009593;28;20220;-82
2021/11/13 04:49:45;;;;;;;2.20;2.00;;;11.00;94.00;;;;;;4997398;28;20250;-82
2021/11/13 04:52:13;;;;;;;3.63;3.07;;;11.00;94.00;;;;;;5012892;28;20219;-82
2021/11/13 04:54:40;;;;;;;3.37;2.17;;;11.10;94.00;;;;;;4997609;28;20208;-82
2021/11/13 04:57:08;;;;;;;0.93;0.93;;;11.10;94.00;;;;;;5010850;28;20295;-82
2021/11/13 04:59:35;;;;;;;3.00;2.20;;;11.10;94.00;;;;;;4996513;28;20208;-82
2021/11/13 05:02:03;;;;;;;1.97;1.87;;;11.10;94.00;;;;;;5002938;28;20213;-82
2021/11/13 05:04:30;;;;;;;4.03;2.40;;;11.10;94.00;;;;;;5007336;28;20372;-82
2021/11/13 05:06:58;;;;;;;2.17;2.07;;;11.10;94.00;;;;;;4979351;28;20217;-82
2021/11/13 05:09:25;;;;;;;2.37;2.10;;;11.10;94.00;;;;;;4992357;28;20889;-82
2021/11/13 05:11:52;;;;;;;5.03;4.53;;;11.20;94.00;;;;;;5010468;28;20640;-82
2021/11/13 05:14:21;;;;;;;1.60;1.50;;;11.20;94.00;;;;;;5020756;28;20226;-83
2021/11/13 05:16:48;;;;;;;2.10;1.37;;;11.20;93.90;;;;;;5011116;28;20220;-82
2021/11/13 05:19:15;;;;;;;1.27;1.17;;;11.20;93.90;;;;;;5000695;28;20247;-82
2021/11/13 05:21:42;;;;;;;5.00;2.47;;;11.30;94.00;;;;;;5013217;28;20685;-82
2021/11/13 05:24:09;;;;;;;3.30;3.10;;;11.30;94.00;;;;;;5011929;28;20212;-82
2021/11/13 05:26:37;;;;;;;1.73;1.63;;;11.30;93.90;;;;;;4982560;28;20315;-82
2021/11/13 05:29:04;;;;;;;2.30;2.00;;;11.30;93.90;;;;;;5003547;28;20215;-82
2021/11/13 05:31:32;;;;;;;2.33;2.23;;;11.30;93.90;;;;;;4997848;28;20263;-83
2021/11/13 05:33:59;;;;;;;1.40;1.30;;;11.30;93.90;;;;;;4994883;28;20220;-82
2021/11/13 05:36:26;;;;;;;1.73;1.63;;;11.30;93.90;;;;;;4992645;28;20274;-82
2021/11/13 05:38:53;;;;;;;3.70;2.00;;;11.40;93.90;;;;;;4991147;28;20224;-82
2021/11/13 05:41:21;;;;;;;1.40;1.30;;;11.40;93.90;;;;;;4996959;28;20244;-83
2021/11/13 05:43:57;;;;;;;2.63;2.43;;;11.40;93.90;;;;;;4993554;28;20234;-82
2021/11/13 05:46:25;;;;;;;3.57;1.90;;;11.40;93.90;;;;;;4995445;28;20258;-82
2021/11/13 05:48:52;;;;;;;4.33;2.53;;;11.40;93.90;;;;;;4998700;28;20255;-83
2021/11/13 05:51:19;;;;;;;2.23;2.07;;;11.40;93.90;;;;;;5011385;28;20239;-82
2021/11/13 05:53:47;;;;;;;4.53;3.43;;;11.40;93.90;;;;;;4995550;28;20231;-83
2021/11/13 05:56:14;;;;;;;3.50;1.90;;;11.50;93.90;;;;;;4996174;28;20217;-83
2021/11/13 05:58:57;;;;;;;3.47;3.00;;;11.50;93.90;;;;;;4998760;28;20275;-82
2021/11/13 06:01:25;;;;;;;3.87;2.83;;;11.50;93.90;;;;;;4992452;28;20235;-82
2021/11/13 06:03:53;;;;;;;2.83;2.07;;;11.50;93.90;;;;;;4997180;28;20276;-82
2021/11/13 06:06:20;;;;;;;2.17;1.80;;;11.50;93.90;;;;;;5012933;28;20545;-82
2021/11/13 06:08:47;;;;;;;2.97;2.63;;;11.50;93.90;;;;;;4996393;28;20227;-82
2021/11/13 06:11:15;;;;;;;3.40;3.20;;;11.50;93.90;;;;;;4995566;28;20584;-83
2021/11/13 06:13:42;;;;;;;3.50;2.27;;;11.50;93.90;;;;;;4998788;28;20216;-81
2021/11/13 06:16:09;;;;;;;3.93;3.30;;;11.60;93.90;;;;;;4990008;28;20231;-82
2021/11/13 06:18:37;;;;;;;15.93;6.60;;;11.60;93.90;;;;;;4994087;28;20231;-82
2021/11/13 06:21:06;;;;;;;4.63;3.20;;;11.60;93.90;;;;;;4992172;28;20236;-83
2021/11/13 06:23:36;;;;;;;4.47;4.07;;;11.70;93.90;;;;;;4994752;28;20239;-82
2021/11/13 06:26:04;;;;;;;4.10;3.23;;;11.70;93.90;;;;;;4992918;28;20226;-82
2021/11/13 06:28:33;;;;;;;3.80;2.20;;;11.70;93.90;;;;;;4997268;28;20288;-83
2021/11/13 06:31:02;;;;;;;4.13;3.77;;;11.70;93.90;;;;;;4991676;28;20279;-82
2021/11/13 06:33:29;;;;;;;2.43;2.30;;;11.70;93.90;;;;;;4994583;28;20299;-82
2021/11/13 06:35:57;;;;;;;3.63;3.30;;;11.80;93.90;;;;;;4996769;28;20638;-82
2021/11/13 06:38:24;;;;;;;3.60;2.57;;;11.80;93.90;;;;;;4994253;28;20222;-83
2021/11/13 06:40:52;;;;;;;4.97;3.50;;;11.80;93.90;;;;;;4999939;28;20242;-82
2021/11/13 06:43:19;;;;;;;5.80;2.67;;;11.90;93.80;;;;;;4995091;28;20212;-83
2021/11/13 06:45:48;;;;;;;14.03;3.73;;;11.90;93.80;;;;;;4984925;28;20635;-82
2021/11/13 06:48:16;;;;;;;6.63;4.00;;;11.90;93.80;;;;;;4988252;28;20271;-82
2021/11/13 06:50:46;;;;;;;5.73;2.77;;;11.90;93.80;;;;;;4988195;28;20224;-82
2021/11/13 06:53:14;;;;;;;9.93;3.93;;;12.00;93.80;;;;;;4995657;28;20219;-82
2021/11/13 06:55:41;;;;;;;18.17;3.10;;;12.00;93.80;;;;;;4997997;28;20221;-82
2021/11/13 06:58:08;;;;;;;3.60;2.30;;;12.00;93.80;;;;;;4996147;28;20220;-82
2021/11/13 07:00:38;;;;;;;6.67;3.80;;;12.00;93.80;;;;;;5015058;28;20236;-82
2021/11/13 07:03:06;;;;;;;5.40;3.33;;;12.00;93.80;;;;;;4988800;28;20563;-82
2021/11/13 07:05:33;;;;;;;6.83;4.07;;;12.10;93.80;;;;;;4996178;28;20719;-82
2021/11/13 07:08:01;;;;;;;11.27;5.27;;;12.10;93.80;;;;;;5014146;28;20212;-82
2021/11/13 07:10:28;;;;;;;7.47;5.17;;;12.10;93.80;;;;;;5000804;28;20642;-82
2021/11/13 07:12:57;;;;;;;9.20;4.13;;;12.10;93.80;;;;;;4994000;28;20219;-82
2021/11/13 07:15:31;;;;;;;5.83;3.17;;;12.10;93.80;;;;;;4995528;28;20216;-82
2021/11/13 07:18:03;;;;;;;3.07;2.97;;;12.20;93.80;;;;;;4997618;28;20225;-82
2021/11/13 07:20:31;;;;;;;2.83;2.63;;;12.20;93.80;;;;;;4989236;28;20211;-82
2021/11/13 07:22:58;;;;;;;3.60;2.63;;;12.30;93.80;;;;;;4989157;28;20737;-82
2021/11/13 07:25:27;;;;;;;4.57;4.13;;;12.30;93.80;;;;;;4993611;28;20553;-82
2021/11/13 07:28:00;;;;;;;13.07;5.60;;;12.30;93.80;;;;;;4988880;28;20209;-82
2021/11/13 07:30:35;;;;;;;4.40;4.00;;;12.30;93.80;;;;;;4997468;28;20208;-82
2021/11/13 07:33:02;;;;;;;9.33;4.97;;;12.30;93.80;;;;;;4990893;28;20235;-82
2021/11/13 07:35:33;;;;;;;4.53;3.53;;;12.30;93.80;;;;;;4995906;28;20648;-82
2021/11/13 07:38:00;;;;;;;26.80;4.10;;;12.30;93.80;;;;;;4979181;28;20208;-82
2021/11/13 07:40:27;;;;;;;3.27;2.73;;;12.30;93.80;;;;;;4989774;28;20208;-82
2021/11/13 07:42:54;;;;;;;5.40;3.10;;;12.40;93.80;;;;;;5010871;28;20605;-82
2021/11/13 07:45:22;;;;;;;2.77;2.27;;;12.40;93.80;;;;;;5011973;28;20310;-82
2021/11/13 07:47:49;;;;;;;21.37;4.93;;;12.40;93.80;;;;;;4986729;28;20222;-82
2021/11/13 07:50:17;;;;;;;11.70;5.47;;;12.40;93.80;;;;;;4990916;28;20303;-82
2021/11/13 07:52:45;;;;;;;7.07;3.27;;;12.40;93.80;;;;;;5003845;28;20248;-82
2021/11/13 07:55:15;;;;;;;6.43;4.77;;;12.40;93.80;;;;;;4996506;28;20219;-82
2021/11/13 07:57:43;;;;;;;9.50;3.40;;;12.40;93.90;;;;;;5011727;28;20231;-82
2021/11/13 08:00:14;;;;;;;2.27;2.17;;;12.40;93.90;;;;;;4987606;28;20239;-82
2021/11/13 08:02:42;;;;;;;3.50;3.23;;;12.40;93.80;;;;;;4990729;28;20251;-82
2021/11/13 08:05:10;;;;;;;10.70;5.80;;;12.40;93.80;;;;;;4991708;28;20223;-82
2021/11/13 08:07:38;;;;;;;8.97;4.27;;;12.40;93.80;;;;;;4991405;28;20207;-82
2021/11/13 08:10:06;;;;;;;4.57;4.27;;;12.40;94.20;;;;;;5003967;28;20642;-82
2021/11/13 08:12:34;;;;;;;8.30;3.83;;;12.40;93.80;;;;;;4993783;28;20228;-82
2021/11/13 08:15:02;;;;;;;8.73;3.57;;;12.40;93.80;;;;;;5001626;28;20218;-82
2021/11/13 08:17:29;;;;;;;14.57;2.37;;;12.40;93.90;;;;;;4992595;28;20208;-82
2021/11/13 08:19:56;;;;;;;5.33;4.00;;;12.40;93.90;;;;;;4994757;28;20204;-82
2021/11/13 08:22:24;;;;;;;1.43;1.13;;;12.40;93.90;;;;;;5014204;28;20232;-83
2021/11/13 08:24:52;;;;;;;4.70;3.37;;;12.50;93.90;;;;;;4995012;28;20614;-82
2021/11/13 08:27:19;;;;;;;10.53;6.30;;;12.50;93.80;;;;;;4998657;28;20203;-82
2021/11/13 08:29:46;;;;;;;2.77;2.33;;;12.50;93.80;;;;;;4986730;28;20653;-82
2021/11/13 08:32:14;;;;;;;5.90;3.47;;;12.50;93.80;;;;;;4993209;28;20234;-82
2021/11/13 08:34:41;;;;;;;15.10;4.10;;;12.50;93.80;;;;;;5008215;28;20215;-82
2021/11/13 08:37:09;;;;;;;11.57;4.93;;;12.50;93.80;;;;;;4993776;28;20326;-82
2021/11/13 08:39:36;;;;;;;5.47;5.07;;;12.60;93.80;;;;;;4983809;28;20686;-82
2021/11/13 08:42:11;;;;;;;2.40;2.13;;;12.60;93.80;;;;;;4986728;28;20314;-82
2021/11/13 08:44:42;;;;;;;4.53;4.23;;;12.60;93.80;;;;;;4991957;28;20550;-82
2021/11/13 08:47:11;;;;;;;17.00;6.33;;;12.60;94.10;;;;;;4998157;28;20222;-82
2021/11/13 08:49:41;;;;;;;7.77;3.43;;;12.60;93.70;;;;;;4994476;28;20248;-82
2021/11/13 08:52:11;;;;;;;2.93;2.70;;;12.60;93.70;;;;;;4992254;28;20218;-82
2021/11/13 08:54:39;;;;;;;2.93;2.53;;;12.60;93.70;;;;;;5000141;28;20220;-82
2021/11/13 08:57:07;;;;;;;2.30;1.83;;;12.60;93.70;;;;;;4996878;28;20216;-82
2021/11/13 08:59:35;;;;;;;6.90;4.03;;;12.50;93.70;;;;;;5016214;28;20211;-82
2021/11/13 09:02:09;;;;;;;2.33;1.90;;;12.50;93.70;;;;;;4993399;28;20239;-82
2021/11/13 09:04:42;;;;;;;6.03;5.37;;;12.40;93.80;;;;;;5012574;28;20216;-82
2021/11/13 09:07:10;;;;;;;10.07;4.57;;;12.50;93.80;;;;;;4992718;28;20211;-82
2021/11/13 09:09:40;;;;;;;10.83;3.23;;;12.50;93.80;;;;;;5009517;28;20208;-82
2021/11/13 09:12:27;;;;;;;6.07;3.53;;;12.40;93.80;;;;;;4993615;28;20259;-82
2021/11/13 09:14:59;;;;;;;9.63;3.47;;;12.40;93.80;;;;;;4993912;28;20214;-82
2021/11/13 09:17:26;;;;;;;1.87;1.77;;;12.40;93.80;;;;;;4993546;28;20207;-82
2021/11/13 09:19:53;;;;;;;4.00;3.73;;;12.40;93.80;;;;;;4985510;28;20271;-82
2021/11/13 09:22:21;;;;;;;6.20;4.93;;;12.40;93.80;;;;;;5001150;28;20235;-82
2021/11/13 09:24:48;;;;;;;2.10;1.90;;;12.40;93.80;;;;;;5017517;28;20653;-82
2021/11/13 09:27:15;;;;;;;4.70;4.30;;;12.50;93.90;;;;;;4992873;28;20219;-82
2021/11/13 09:29:43;;;;;;;3.40;2.80;;;12.50;93.90;;;;;;4993778;28;20224;-82
2021/11/13 09:32:10;;;;;;;7.60;4.03;;;12.50;93.90;;;;;;4996222;28;20219;-82
2021/11/13 09:34:41;;;;;;;9.70;4.33;;;12.50;93.90;;;;;;4996236;28;20643;-82
2021/11/13 09:37:09;;;;;;;21.03;3.73;;;12.50;94.00;;;;;;5013239;28;20255;-82
2021/11/13 09:39:38;;;;;;;1.80;1.67;;;12.60;94.00;;;;;;5002551;28;20549;-82
2021/11/13 09:42:05;;;;;;;6.50;3.43;;;12.70;93.80;;;;;;4993240;28;20248;-82
2021/11/13 09:44:33;;;;;;;14.47;5.03;;;12.70;93.70;;;;;;5016837;28;20370;-82
2021/11/13 09:47:00;;;;;;;7.80;3.73;;;12.70;93.60;;;;;;4995981;28;20216;-82
2021/11/13 09:49:29;;;;;;;5.93;3.80;;;12.70;93.60;;;;;;4991484;28;20248;-82
2021/11/13 09:51:58;;;;;;;11.30;2.67;;;12.70;93.60;;;;;;4995575;28;20226;-82
2021/11/13 09:54:26;;;;;;;12.50;6.70;;;12.70;93.60;;;;;;4993684;28;20216;-82
2021/11/13 09:56:54;;;;;;;4.30;3.90;;;12.70;93.60;;;;;;4990432;28;20287;-82
2021/11/13 09:59:23;;;;;;;4.03;3.63;;;12.80;93.60;;;;;;4990672;28;20242;-82
2021/11/13 10:01:51;;;;;;;6.80;3.20;;;12.80;93.60;;;;;;5014220;28;20335;-81
2021/11/13 10:04:18;;;;;;;4.97;4.07;;;12.80;93.90;;;;;;4993680;28;20305;-82
2021/11/13 10:06:47;;;;;;;5.73;3.50;;;12.80;93.50;;;;;;4997592;28;20223;-82
2021/11/13 10:09:15;;;;;;;4.33;3.23;;;12.80;93.60;;;;;;4996336;28;20211;-83
2021/11/13 10:11:48;;;;;;;20.10;3.83;;;12.80;93.60;;;;;;5012822;28;20286;-82
2021/11/13 10:14:17;;;;;;;5.47;4.57;;;12.80;93.60;;;;;;4983970;28;20605;-82
2021/11/13 10:16:49;;;;;;;3.47;3.23;;;12.80;93.60;;;;;;4999999;28;20299;-82
2021/11/13 10:19:19;;;;;;;5.30;2.83;;;12.80;93.60;;;;;;4997232;28;20215;-82
2021/11/13 10:21:52;;;;;;;1.27;1.27;;;12.80;93.50;;;;;;4995814;28;20294;-82
2021/11/13 10:24:28;;;;;;;9.13;3.33;;;12.90;93.60;;;;;;5014552;28;20566;-82
2021/11/13 10:27:00;;;;;;;4.03;3.83;;;13.00;93.60;;;;;;4986435;28;20216;-82
2021/11/13 10:29:31;;;;;;;5.43;4.20;;;13.00;93.50;;;;;;4978542;28;20227;-82
2021/11/13 10:32:06;;;;;;;8.27;5.10;;;13.00;93.40;;;;;;5003945;28;20286;-82
2021/11/13 10:34:38;;;;;;;6.77;3.10;;;13.00;93.40;;;;;;5021906;28;20238;-82
2021/11/13 10:37:13;;;;;;;11.97;5.27;;;12.90;93.30;;;;;;4992830;28;20276;-82
2021/11/13 10:39:43;;;;;;;5.43;3.13;;;12.90;93.40;;;;;;4994491;28;20216;-82
2021/11/13 10:42:13;;;;;;;5.10;3.23;;;12.90;93.50;;;;;;5003736;28;20339;-81
2021/11/13 10:44:53;;;;;;;11.43;7.20;;;12.90;93.40;;;;;;4995071;28;20204;-82
2021/11/13 10:47:24;;;;;;;6.13;2.80;;;12.90;93.40;;;;;;5009426;28;20654;-81
2021/11/13 10:49:52;;;;;;;28.07;4.67;;;12.90;93.40;;;;;;5012322;28;20255;-82
2021/11/13 10:52:21;;;;;;;9.67;4.77;;;12.90;93.40;;;;;;4995186;28;20303;-82
2021/11/13 10:54:51;;;;;;;7.03;6.30;;;12.90;93.50;;;;;;4994007;28;20212;-82
2021/11/13 10:57:28;;;;;;;7.57;2.87;;;12.90;93.60;;;;;;4989139;28;20426;-81
2021/11/13 11:00:10;;;;;;;6.93;3.10;;;13.00;93.60;;;;;;4977097;28;20220;-81
2021/11/13 11:02:37;;;;;;;19.10;2.97;;;13.00;93.50;;;;;;5009296;28;20259;-82
2021/11/13 11:05:20;;;;;;;18.37;3.77;;;13.00;93.40;;;;;;4996128;28;20277;-83
2021/11/13 11:07:48;;;;;;;15.83;5.73;;;13.00;93.40;;;;;;5001500;28;20228;-81
2021/11/13 11:10:19;;;;;;;3.10;2.80;;;13.00;93.40;;;;;;4999068;28;20215;-82
2021/11/13 11:12:47;;;;;;;9.53;5.93;;;13.00;93.30;;;;;;4994985;28;20212;-82
2021/11/13 11:15:15;;;;;;;5.90;5.20;;;13.00;93.30;;;;;;5016454;28;20227;-82
2021/11/13 11:17:46;;;;;;;5.97;4.60;;;13.00;93.20;;;;;;5009274;28;20207;-82
2021/11/13 11:20:18;;;;;;;11.73;3.53;;;13.00;93.20;;;;;;4998524;28;20222;-82
2021/11/13 11:22:46;;;;;;;4.37;4.00;;;13.10;93.30;;;;;;5004410;28;20232;-82
2021/11/13 11:25:15;;;;;;;15.70;5.67;;;13.20;93.20;;;;;;4999488;28;20303;-82
2021/11/13 11:27:46;;;;;;;7.53;4.20;;;13.20;93.20;;;;;;4987608;28;20227;-81
2021/11/13 11:30:20;;;;;;;5.43;2.70;;;13.30;93.20;;;;;;5005375;28;20250;-82
2021/11/13 11:32:56;;;;;;;7.57;3.13;;;13.30;93.10;;;;;;4984480;28;20637;-81
2021/11/13 11:35:39;;;;;;;20.47;2.00;;;13.30;93.20;;;;;;4995806;28;20211;-82
2021/11/13 11:38:12;;;;;;;14.47;5.83;;;13.30;93.20;;;;;;5009316;28;20641;-82
2021/11/13 11:40:43;;;;;;;3.10;2.83;;;13.30;93.20;;;;;;4994333;28;20215;-82
2021/11/13 11:43:13;;;;;;;2.87;2.67;;;13.30;93.10;;;;;;4994797;28;20228;-83
2021/11/13 11:45:45;;;;;;;5.63;3.57;;;13.40;93.20;;;;;;5000315;28;20212;-82
2021/11/13 11:48:15;;;;;;;3.77;3.47;;;13.40;93.10;;;;;;4988051;28;20589;-82
2021/11/13 11:50:46;;;;;;;10.50;5.83;;;13.40;93.10;;;;;;4994102;28;20677;-82
2021/11/13 11:53:14;;;;;;;5.87;2.93;;;13.50;93.00;;;;;;5016503;28;20286;-82
2021/11/13 11:55:51;;;;;;;6.50;3.30;;;13.50;93.00;;;;;;5016027;28;20646;-82
2021/11/13 11:58:21;;;;;;;4.13;3.70;;;13.50;92.90;;;;;;5007940;28;20212;-82
2021/11/13 12:00:52;;;;;;;4.53;2.67;;;13.50;92.90;;;;;;4991634;28;20266;-82
2021/11/13 12:03:24;;;;;;;17.27;5.50;;;13.50;92.90;;;;;;4992438;28;20264;-82
2021/11/13 12:05:55;;;;;;;2.87;2.67;;;13.50;92.90;;;;;;4987870;28;20220;-82
2021/11/13 12:08:26;;;;;;;10.37;6.33;;;13.50;92.80;;;;;;4996883;28;20547;-82
2021/11/13 12:11:14;;;;;;;14.50;3.37;;;13.50;92.80;;;;;;4993879;28;20256;-82
2021/11/13 12:13:43;;;;;;;7.33;6.03;;;13.50;92.90;;;;;;5007747;28;20216;-82
2021/11/13 12:16:24;;;;;;;15.83;6.27;;;13.60;92.80;;;;;;4957350;28;20219;-83
2021/11/13 12:18:52;;;;;;;6.47;4.90;;;13.60;92.80;;;;;;4991511;28;20216;-82
2021/11/13 12:21:19;;;;;;;25.83;5.60;;;13.60;92.80;;;;;;4992764;28;20215;-82
2021/11/13 12:23:50;;;;;;;13.40;3.13;;;13.60;92.70;;;;;;4993924;28;20567;-82
2021/11/13 12:26:36;;;;;;;8.87;5.20;;;13.70;92.70;;;;;;4996254;28;20243;-82
2021/11/13 12:29:13;;;;;;;0.97;0.97;;;13.70;92.60;;;;;;4994177;28;20370;-81
2021/11/13 12:31:42;;;;;;;7.37;4.80;;;13.70;92.50;;;;;;5011894;28;20215;-82
2021/11/13 12:34:14;;;;;;;5.67;3.90;;;13.60;92.40;;;;;;4993494;28;20207;-82
2021/11/13 12:36:52;;;;;;;7.53;5.27;;;13.70;92.50;;;;;;4994534;28;20214;-82
2021/11/13 12:39:21;;;;;;;5.10;2.97;;;13.70;92.50;;;;;;4994643;28;20216;-82
2021/11/13 12:41:57;;;;;;;9.07;3.77;;;13.70;92.40;;;;;;4994650;28;20234;-82
2021/11/13 12:44:33;;;;;;;7.17;3.83;;;13.70;92.30;;;;;;4992764;28;20603;-83
2021/11/13 12:47:19;;;;;;;7.00;2.43;;;13.70;92.40;;;;;;5008593;28;20211;-83
2021/11/13 12:50:14;;;;;;;4.77;4.27;;;13.70;92.40;;;;;;4988145;28;20581;-82
2021/11/13 12:52:47;;;;;;;6.63;4.20;;;13.70;92.30;;;;;;4999322;28;20215;-82
2021/11/13 12:55:20;;;;;;;17.97;5.73;;;13.80;92.20;;;;;;4991682;28;20295;-83
2021/11/13 12:58:05;;;;;;;8.27;3.60;;;13.70;92.30;;;;;;4978538;28;20275;-82
2021/11/13 13:00:36;;;;;;;28.77;6.57;;;13.80;92.30;;;;;;5011358;28;20215;-83